Portada
METAR-TAF:

METAR-TAF

Aeropuertos :

Aeropuerto Internacional Eleftherios Venizelos

Atenas, Grecia

latitud: 37-56N, longitud: 023-56E, altitud: 94 m

Observación

El informe se hizo hace 27 minutos, a las 13:50 UTC
Viento 7 kt del suroeste
Temperatura 14°C
Humedad 51%
Presión 1018 hPa
Visibilidad 10 km o más
Escasas nubes a una altura de 3000 ft

METAR: LGAV 181350Z 22007KT 9999 FEW030 14/04 Q1018 NOSIG

Hora: 16:17 (14:17 UTC)

Pronóstico

El informe se hizo hace 3 horas y 17 minutos, a las 11:00 UTC
Pronóstico válido del 18 a las 12 UTC al 19 a las 12 UTC
Viento 15 kt del suroeste
Visibilidad 10 km o más
Escasas nubes a una altura de 2500 ft
Nubes dispersas a una altura de 7000 ft

TAF: LGAV 181100Z 1812/1912 23015KT 9999 FEW025 SCT070

Observaciones y pronósticos meteorológicos de más de 4000 aeropuertos (mensajes METAR y TAF).

Los puntos amarillos y rojos representan las estaciones disponibles.

Ponga el ratón en el punto deseado para ver el nombre de la estación.

Haga clic para ver las observaciones y los pronósticos meteorológicos.

Para cambiar el mapa : haga clic en los botones verdes con una cruz de color negro para hacer un zoom, en el botón verde con un guión para alejar o en las flechas verdes para mapas adyacentes.


METAR-TAF: